Time;durP1;ratioP1;P1;durP2;ratioP2;P2;SDS_P1;SDS_P2;PMS_P1;PMS_P2;Temp;Humidity;BMP_temperature;BMP_pressure;BME280_temperature;BME280_humidity;BME280_pressure;Samples;Min_cycle;Max_cycle;Signal;HPM_P1;HPM_P2
2022/01/16 00:00:42;;;;;;;;;;;4.20;95.10;;;;;;5086820;28;19912;-61
2022/01/16 00:05:52;;;;;;;;;;;4.10;95.10;;;;;;5091929;28;19915;-61
2022/01/16 00:08:18;;;;;;;;;;;4.10;95.00;;;;;;5088122;28;19923;-60
2022/01/16 00:10:43;;;;;;;;;;;4.10;95.00;;;;;;5087078;28;19916;-61
2022/01/16 00:13:09;;;;;;;;;;;4.10;95.10;;;;;;5102923;28;19919;-60
2022/01/16 00:15:34;;;;;;;;;;;4.10;95.00;;;;;;5071097;28;19908;-61
2022/01/16 00:18:10;;;;;;;;;;;4.10;95.00;;;;;;5069848;28;19920;-60
2022/01/16 00:20:35;;;;;;;;;;;4.10;95.00;;;;;;5088676;28;19908;-60
2022/01/16 00:23:03;;;;;;;;;;;4.10;94.90;;;;;;5068115;28;20266;-61
2022/01/16 00:25:28;;;;;;;;;;;4.10;94.90;;;;;;5086960;28;19919;-61
2022/01/16 00:27:54;;;;;;;;;;;4.10;94.90;;;;;;5087380;28;19922;-60
2022/01/16 00:30:19;;;;;;;;;;;4.00;94.90;;;;;;5086532;28;20390;-60
2022/01/16 00:32:45;;;;;;;;;;;4.00;94.90;;;;;;5105089;28;20006;-61
2022/01/16 00:35:14;;;;;;;;;;;4.00;94.90;;;;;;5070693;28;19912;-60
2022/01/16 00:37:39;;;;;;;;;;;4.00;94.90;;;;;;5105045;28;19916;-61
2022/01/16 00:40:05;;;;;;;;;;;4.00;94.90;;;;;;5086082;28;19938;-61
2022/01/16 00:42:31;;;;;;;;;;;4.00;94.90;;;;;;5105961;28;20016;-61
2022/01/16 00:44:56;;;;;;;;;;;4.00;94.90;;;;;;5070875;28;19926;-61
2022/01/16 00:47:21;;;;;;;;;;;4.00;94.90;;;;;;5087489;28;19918;-60
2022/01/16 00:49:47;;;;;;;;;;;4.00;94.90;;;;;;5104943;27;19920;-61
2022/01/16 00:52:12;;;;;;;;;;;4.00;94.90;;;;;;5068267;28;19912;-61
2022/01/16 00:54:38;;;;;;;;;;;4.00;94.90;;;;;;5087929;28;19926;-61
2022/01/16 00:57:03;;;;;;;;;;;3.90;94.80;;;;;;5070305;28;19916;-61
2022/01/16 00:59:29;;;;;;;;;;;3.90;94.80;;;;;;5104404;28;20268;-60
2022/01/16 01:01:54;;;;;;;;;;;3.90;94.80;;;;;;5086138;28;19931;-60
2022/01/16 01:04:20;;;;;;;;;;;3.90;94.80;;;;;;5086910;28;19912;-61
2022/01/16 01:06:50;;;;;;;;;;;3.90;94.80;;;;;;5087219;28;20480;-61
2022/01/16 01:09:16;;;;;;;;;;;3.90;94.80;;;;;;5103496;28;19989;-61
2022/01/16 01:11:43;;;;;;;;;;;3.90;94.80;;;;;;5087315;28;20463;-60
2022/01/16 01:14:22;;;;;;;;;;;3.90;94.80;;;;;;5087392;28;20052;-61
2022/01/16 01:16:57;;;;;;;;;;;3.90;94.80;;;;;;5087037;28;19916;-60
2022/01/16 01:19:26;;;;;;;;;;;3.90;94.80;;;;;;5103673;28;20304;-61
2022/01/16 01:21:51;;;;;;;;;;;3.80;94.70;;;;;;5087876;28;19957;-60
2022/01/16 01:24:17;;;;;;;;;;;3.90;94.80;;;;;;5103898;28;20007;-60
2022/01/16 01:26:52;;;;;;;;;;;3.90;94.80;;;;;;5086296;28;20312;-60
2022/01/16 01:29:20;;;;;;;;;;;3.90;94.70;;;;;;5085256;28;20378;-60
2022/01/16 01:31:45;;;;;;;;;;;3.80;94.70;;;;;;5070061;28;20286;-60
2022/01/16 01:34:11;;;;;;;;;;;3.90;94.70;;;;;;5085351;28;19916;-60
2022/01/16 01:36:36;;;;;;;;;;;3.80;94.70;;;;;;5085527;28;19920;-61
2022/01/16 01:39:02;;;;;;;;;;;3.80;94.70;;;;;;5085326;28;19919;-61
2022/01/16 01:41:29;;;;;;;;;;;3.80;94.70;;;;;;5068364;28;19924;-61
2022/01/16 01:52:07;;;;;;;;;;;3.80;94.70;;;;;;5088348;28;20006;-60
2022/01/16 01:54:32;;;;;;;;;;;3.80;94.70;;;;;;5084572;28;20015;-60
2022/01/16 01:56:58;;;;;;;;;;;3.80;94.80;;;;;;5086411;28;20330;-60
2022/01/16 01:59:24;;;;;;;;;;;3.80;94.70;;;;;;5103172;28;19920;-60
2022/01/16 02:01:49;;;;;;;;;;;3.80;94.80;;;;;;5101881;28;20256;-60
2022/01/16 02:04:15;;;;;;;;;;;3.70;94.70;;;;;;5086983;28;19907;-60
2022/01/16 02:06:40;;;;;;;;;;;3.80;94.70;;;;;;5084378;28;20011;-60
2022/01/16 02:09:06;;;;;;;;;;;3.70;94.70;;;;;;5067521;28;19920;-60
2022/01/16 02:11:32;;;;;;;;;;;3.80;94.70;;;;;;5088173;28;19931;-60
2022/01/16 02:14:22;;;;;;;;;;;3.80;94.70;;;;;;5068255;28;19942;-60
2022/01/16 02:28:14;;;;;;;;;;;3.70;94.60;;;;;;5088969;28;19991;-60
2022/01/16 02:31:18;;;;;;;;;;;3.70;94.60;;;;;;5068822;28;19920;-61
2022/01/16 02:36:27;;;;;;;;;;;3.80;94.60;;;;;;5104141;28;19958;-61
2022/01/16 02:39:00;;;;;;;;;;;3.70;94.50;;;;;;5070770;28;19912;-60
2022/01/16 02:41:25;;;;;;;;;;;3.70;94.60;;;;;;5070480;28;19947;-60
2022/01/16 02:43:52;;;;;;;;;;;3.70;94.60;;;;;;5085544;28;19955;-61
2022/01/16 02:48:44;;;;;;;;;;;3.70;94.50;;;;;;5087485;28;19923;-60
2022/01/16 02:51:09;;;;;;;;;;;3.70;94.60;;;;;;5088922;28;20386;-60
2022/01/16 02:53:35;;;;;;;;;;;3.70;94.50;;;;;;5089090;28;20013;-61
2022/01/16 02:56:00;;;;;;;;;;;3.70;94.50;;;;;;5108056;28;20044;-60
2022/01/16 02:58:26;;;;;;;;;;;3.70;94.60;;;;;;5087910;28;20255;-61
2022/01/16 03:00:51;;;;;;;;;;;3.60;94.60;;;;;;5071391;28;19915;-60
2022/01/16 03:03:17;;;;;;;;;;;3.70;94.60;;;;;;5073082;28;19949;-60
2022/01/16 03:05:42;;;;;;;;;;;3.70;94.60;;;;;;5089856;28;19927;-61
2022/01/16 03:08:07;;;;;;;;;;;3.60;94.60;;;;;;5073546;27;20256;-60
2022/01/16 03:11:35;;;;;;;;;;;3.60;94.60;;;;;;5071181;28;20030;-60
2022/01/16 03:13:31;;;;;;;;;;;3.60;94.50;;;;;;5075279;28;20399;-60
2022/01/16 03:15:57;;;;;;;;;;;3.60;94.60;;;;;;5089877;28;19973;-61
2022/01/16 03:23:33;;;;;;;;;;;3.60;94.50;;;;;;5103782;28;20394;-61
2022/01/16 03:25:59;;;;;;;;;;;3.60;94.50;;;;;;5087932;28;19987;-60
2022/01/16 03:28:25;;;;;;;;;;;3.60;94.50;;;;;;5089505;28;20010;-60
2022/01/16 03:30:51;;;;;;;;;;;3.60;94.50;;;;;;5088539;28;19919;-60
2022/01/16 03:33:17;;;;;;;;;;;3.60;94.50;;;;;;5072221;28;19937;-61
2022/01/16 03:35:42;;;;;;;;;;;3.60;94.50;;;;;;5087284;28;20359;-60
2022/01/16 03:38:08;;;;;;;;;;;3.60;94.50;;;;;;5071267;28;19994;-61
2022/01/16 03:40:34;;;;;;;;;;;3.60;94.50;;;;;;5070486;28;19955;-60
2022/01/16 03:43:09;;;;;;;;;;;3.60;94.50;;;;;;5088172;28;19962;-60
2022/01/16 03:45:34;;;;;;;;;;;3.70;94.50;;;;;;5089406;28;20041;-60
2022/01/16 03:48:00;;;;;;;;;;;3.60;94.50;;;;;;5068574;28;20476;-60
2022/01/16 03:50:25;;;;;;;;;;;3.60;94.50;;;;;;5086448;28;20019;-60
2022/01/16 03:52:51;;;;;;;;;;;3.60;94.50;;;;;;5086288;28;19915;-60
2022/01/16 03:55:16;;;;;;;;;;;3.50;94.50;;;;;;5104319;28;19949;-61
2022/01/16 03:57:42;;;;;;;;;;;3.60;94.50;;;;;;5070844;28;19946;-60
2022/01/16 04:00:07;;;;;;;;;;;3.50;94.40;;;;;;5087156;28;19933;-60
2022/01/16 04:02:33;;;;;;;;;;;3.60;94.50;;;;;;5070212;28;19920;-61
2022/01/16 04:04:58;;;;;;;;;;;3.70;94.50;;;;;;5085685;28;19916;-61
2022/01/16 04:07:28;;;;;;;;;;;3.60;94.50;;;;;;5088916;28;19950;-60
2022/01/16 04:09:54;;;;;;;;;;;3.50;94.40;;;;;;5088164;28;19924;-60
2022/01/16 04:12:22;;;;;;;;;;;3.60;94.50;;;;;;5087281;28;19923;-60
2022/01/16 04:17:17;;;;;;;;;;;3.60;94.50;;;;;;5087590;28;19985;-61
2022/01/16 04:19:43;;;;;;;;;;;3.50;94.40;;;;;;5069319;28;19980;-60
2022/01/16 04:22:09;;;;;;;;;;;3.50;94.50;;;;;;5069220;28;19919;-60
2022/01/16 04:24:34;;;;;;;;;;;3.50;94.40;;;;;;5071608;28;19951;-60
2022/01/16 04:27:00;;;;;;;;;;;3.60;94.50;;;;;;5071486;28;21292;-60
2022/01/16 04:29:25;;;;;;;;;;;3.50;94.40;;;;;;5067773;28;20022;-60
2022/01/16 04:31:51;;;;;;;;;;;3.70;94.50;;;;;;5088715;28;20050;-61
2022/01/16 04:34:16;;;;;;;;;;;3.50;94.40;;;;;;5087545;28;19907;-60
2022/01/16 04:36:42;;;;;;;;;;;3.50;94.70;;;;;;5086627;28;19916;-60
2022/01/16 04:39:13;;;;;;;;;;;3.50;94.40;;;;;;5071499;28;20011;-60
2022/01/16 04:44:22;;;;;;;;;;;3.50;94.50;;;;;;5088766;28;19973;-61
2022/01/16 04:46:48;;;;;;;;;;;3.50;94.50;;;;;;5104959;28;19915;-60
2022/01/16 04:49:13;;;;;;;;;;;3.50;94.50;;;;;;5088249;28;19915;-60
2022/01/16 04:51:38;;;;;;;;;;;3.50;94.40;;;;;;5083795;28;19973;-60
2022/01/16 04:54:04;;;;;;;;;;;3.50;94.50;;;;;;5086642;28;19962;-60
2022/01/16 04:56:29;;;;;;;;;;;3.50;94.40;;;;;;5070412;28;19919;-60
2022/01/16 04:58:55;;;;;;;;;;;3.50;94.40;;;;;;5087514;28;19919;-60
2022/01/16 05:01:20;;;;;;;;;;;3.50;94.40;;;;;;5069286;28;19947;-60
2022/01/16 05:03:46;;;;;;;;;;;3.50;94.40;;;;;;5087909;28;20023;-60
2022/01/16 05:06:11;;;;;;;;;;;3.50;94.30;;;;;;5102476;28;19957;-60
2022/01/16 05:08:37;;;;;;;;;;;3.50;94.30;;;;;;5068558;28;20056;-61
2022/01/16 05:11:03;;;;;;;;;;;3.50;94.30;;;;;;5069128;28;19922;-60
2022/01/16 05:18:39;;;;;;;;;;;3.50;94.30;;;;;;5088555;28;19922;-60
2022/01/16 05:21:05;;;;;;;;;;;3.50;94.40;;;;;;5084708;28;19916;-61
2022/01/16 05:23:30;;;;;;;;;;;3.50;94.40;;;;;;5067908;28;19962;-60
2022/01/16 05:25:56;;;;;;;;;;;3.50;94.40;;;;;;5086460;28;20367;-61
2022/01/16 05:28:21;;;;;;;;;;;3.50;94.40;;;;;;5087138;28;19920;-60
2022/01/16 05:30:47;;;;;;;;;;;3.50;94.30;;;;;;5084709;28;19919;-60
2022/01/16 05:33:12;;;;;;;;;;;3.50;94.30;;;;;;5068658;28;19908;-60
2022/01/16 05:35:37;;;;;;;;;;;3.50;94.30;;;;;;5068198;28;19912;-60
2022/01/16 05:38:03;;;;;;;;;;;3.40;94.30;;;;;;5087146;28;19919;-61
2022/01/16 05:40:29;;;;;;;;;;;3.40;94.40;;;;;;5069861;28;20325;-60
2022/01/16 05:42:55;;;;;;;;;;;3.40;94.40;;;;;;5087648;28;19916;-61
2022/01/16 05:45:21;;;;;;;;;;;3.40;94.30;;;;;;5084209;28;19961;-60
2022/01/16 05:47:46;;;;;;;;;;;3.40;94.30;;;;;;5068763;28;20259;-60
2022/01/16 05:50:13;;;;;;;;;;;3.60;94.30;;;;;;5067295;28;19924;-60
2022/01/16 05:52:39;;;;;;;;;;;3.40;94.30;;;;;;5087058;28;20014;-60
2022/01/16 05:55:04;;;;;;;;;;;3.60;94.40;;;;;;5067612;28;20339;-60
2022/01/16 05:57:30;;;;;;;;;;;3.40;94.30;;;;;;5069438;28;19916;-60
2022/01/16 05:59:55;;;;;;;;;;;3.40;94.30;;;;;;5084520;28;19908;-60
2022/01/16 06:02:21;;;;;;;;;;;3.40;94.30;;;;;;5085738;28;20000;-61
2022/01/16 06:04:46;;;;;;;;;;;3.40;94.30;;;;;;5065325;28;20006;-61
2022/01/16 06:07:12;;;;;;;;;;;3.40;94.40;;;;;;5069037;28;19954;-60
2022/01/16 06:09:37;;;;;;;;;;;3.40;94.50;;;;;;5084644;27;19922;-61
2022/01/16 06:12:04;;;;;;;;;;;3.30;94.40;;;;;;5086599;28;19916;-61
2022/01/16 06:14:30;;;;;;;;;;;3.40;94.50;;;;;;5069411;28;20003;-60
2022/01/16 06:16:55;;;;;;;;;;;3.30;94.40;;;;;;5084597;28;20029;-61
2022/01/16 06:19:21;;;;;;;;;;;3.40;94.40;;;;;;5084841;28;19916;-61
2022/01/16 06:21:46;;;;;;;;;;;3.40;94.40;;;;;;5084779;28;19912;-60
2022/01/16 06:24:12;;;;;;;;;;;3.30;94.40;;;;;;5082889;28;19916;-61
2022/01/16 06:26:37;;;;;;;;;;;3.30;94.40;;;;;;5102317;28;19975;-60
2022/01/16 06:29:03;;;;;;;;;;;3.30;94.50;;;;;;5068300;28;19916;-60
2022/01/16 06:31:28;;;;;;;;;;;3.30;94.60;;;;;;5103290;28;19964;-60
2022/01/16 06:33:54;;;;;;;;;;;3.30;94.70;;;;;;5068292;28;20255;-60
2022/01/16 06:36:19;;;;;;;;;;;3.30;94.70;;;;;;5083082;28;19926;-60
2022/01/16 06:38:46;;;;;;;;;;;3.30;94.70;;;;;;5082383;28;19965;-60
2022/01/16 06:41:11;;;;;;;;;;;3.30;94.70;;;;;;5083751;28;19919;-60
2022/01/16 06:43:37;;;;;;;;;;;3.30;94.80;;;;;;5069611;28;19930;-60
2022/01/16 06:46:02;;;;;;;;;;;3.30;94.80;;;;;;5084635;28;19915;-60
2022/01/16 06:48:28;;;;;;;;;;;3.30;94.90;;;;;;5085419;28;19912;-60
2022/01/16 06:50:53;;;;;;;;;;;3.30;94.90;;;;;;5101583;28;19911;-61
2022/01/16 06:53:19;;;;;;;;;;;3.30;94.90;;;;;;5099860;28;19969;-61
2022/01/16 06:55:44;;;;;;;;;;;3.30;94.90;;;;;;5069188;28;19915;-60
2022/01/16 06:58:09;;;;;;;;;;;3.30;94.80;;;;;;5086771;28;19916;-61
2022/01/16 07:00:35;;;;;;;;;;;3.20;94.80;;;;;;5101458;28;19988;-60
2022/01/16 07:03:00;;;;;;;;;;;3.30;94.80;;;;;;5079000;28;19921;-60
2022/01/16 07:05:26;;;;;;;;;;;3.30;94.90;;;;;;5043989;28;20353;-60
2022/01/16 07:07:51;;;;;;;;;;;3.30;94.90;;;;;;5077280;28;19919;-60
2022/01/16 07:10:17;;;;;;;;;;;3.40;94.90;;;;;;5060898;28;19928;-61
2022/01/16 07:12:42;;;;;;;;;;;3.30;94.80;;;;;;5062437;28;19979;-61
2022/01/16 07:15:08;;;;;;;;;;;3.30;94.80;;;;;;5044983;28;19912;-60
2022/01/16 07:17:33;;;;;;;;;;;3.30;94.80;;;;;;5046269;28;19913;-61
2022/01/16 07:19:59;;;;;;;;;;;3.20;94.80;;;;;;5044377;28;20015;-61
2022/01/16 07:22:24;;;;;;;;;;;3.20;94.70;;;;;;5061621;28;19993;-61
2022/01/16 07:24:50;;;;;;;;;;;3.20;94.80;;;;;;5045934;28;19926;-60
2022/01/16 07:27:16;;;;;;;;;;;3.20;94.90;;;;;;5062488;28;19983;-61
2022/01/16 07:29:41;;;;;;;;;;;3.20;94.90;;;;;;5059673;28;20443;-61
2022/01/16 07:32:07;;;;;;;;;;;3.20;95.00;;;;;;5061045;28;19913;-60
2022/01/16 07:34:33;;;;;;;;;;;3.20;95.00;;;;;;5049381;28;19915;-64
2022/01/16 07:36:58;;;;;;;;;;;3.10;95.00;;;;;;5068240;28;19913;-61
2022/01/16 07:39:23;;;;;;;;;;;3.10;95.10;;;;;;5065136;28;19913;-60
2022/01/16 07:41:49;;;;;;;;;;;3.10;95.10;;;;;;5047410;28;19916;-61
2022/01/16 07:44:14;;;;;;;;;;;3.10;95.20;;;;;;5058074;28;19919;-61
2022/01/16 07:46:40;;;;;;;;;;;3.10;95.20;;;;;;5065662;28;20433;-61
2022/01/16 07:49:05;;;;;;;;;;;3.10;95.20;;;;;;5049224;28;20015;-61
2022/01/16 07:51:32;;;;;;;;;;;3.00;95.10;;;;;;5048673;28;20360;-62
2022/01/16 07:53:57;;;;;;;;;;;3.00;95.10;;;;;;5047416;28;19966;-60
2022/01/16 07:56:23;;;;;;;;;;;3.10;95.20;;;;;;5043060;28;19912;-61
2022/01/16 07:58:48;;;;;;;;;;;3.00;95.30;;;;;;5048070;28;19927;-61
2022/01/16 08:01:14;;;;;;;;;;;3.10;95.30;;;;;;5071886;28;20477;-60
2022/01/16 08:03:39;;;;;;;;;;;3.10;95.30;;;;;;5071441;28;19935;-61
2022/01/16 08:06:05;;;;;;;;;;;3.10;95.30;;;;;;5085302;28;19926;-60
2022/01/16 08:08:30;;;;;;;;;;;3.00;95.30;;;;;;5087192;28;19920;-61
2022/01/16 08:10:55;;;;;;;;;;;3.00;95.20;;;;;;5085677;28;20305;-60
2022/01/16 08:13:21;;;;;;;;;;;3.00;95.20;;;;;;5088198;28;19943;-61
2022/01/16 08:15:46;;;;;;;;;;;3.00;95.20;;;;;;5072126;28;19908;-60
2022/01/16 08:18:12;;;;;;;;;;;3.00;95.20;;;;;;5069889;28;20415;-61
2022/01/16 08:20:37;;;;;;;;;;;3.00;95.20;;;;;;5083621;28;19920;-60
2022/01/16 08:23:03;;;;;;;;;;;2.90;95.20;;;;;;5104185;28;19912;-61
2022/01/16 08:25:28;;;;;;;;;;;2.90;95.20;;;;;;5104339;28;19915;-60
2022/01/16 08:27:53;;;;;;;;;;;2.90;95.20;;;;;;5071639;28;19985;-61
2022/01/16 08:30:19;;;;;;;;;;;2.90;95.20;;;;;;5087474;28;19919;-61
2022/01/16 08:32:44;;;;;;;;;;;2.90;95.20;;;;;;5104313;28;20455;-60
2022/01/16 08:35:10;;;;;;;;;;;2.90;95.10;;;;;;5086913;28;19916;-60
2022/01/16 08:37:36;;;;;;;;;;;2.90;95.10;;;;;;5105716;28;19908;-60
2022/01/16 08:40:02;;;;;;;;;;;2.90;95.20;;;;;;5085402;28;19912;-61
2022/01/16 08:42:27;;;;;;;;;;;2.90;95.00;;;;;;5087561;28;19919;-60
2022/01/16 08:44:53;;;;;;;;;;;2.90;95.10;;;;;;5085391;28;19916;-60
2022/01/16 08:47:18;;;;;;;;;;;2.90;95.00;;;;;;5085237;28;20183;-60
2022/01/16 08:49:43;;;;;;;;;;;2.90;95.00;;;;;;5085483;28;19918;-61
2022/01/16 08:52:09;;;;;;;;;;;2.90;95.00;;;;;;5086305;28;19959;-60
2022/01/16 08:54:34;;;;;;;;;;;3.00;95.00;;;;;;5084419;28;20348;-60
2022/01/16 08:57:01;;;;;;;;;;;2.90;95.00;;;;;;5085157;28;20100;-61
2022/01/16 08:59:26;;;;;;;;;;;2.90;94.90;;;;;;5083865;28;20445;-61
2022/01/16 09:01:52;;;;;;;;;;;3.20;94.90;;;;;;5085861;28;19923;-61
2022/01/16 09:04:17;;;;;;;;;;;3.20;95.00;;;;;;5068882;28;19920;-60
2022/01/16 09:06:43;;;;;;;;;;;2.90;94.90;;;;;;5069643;28;20290;-61
2022/01/16 09:09:08;;;;;;;;;;;2.90;94.90;;;;;;5102674;28;19930;-60
2022/01/16 09:11:34;;;;;;;;;;;2.90;94.90;;;;;;5068345;28;19911;-61
2022/01/16 09:13:59;;;;;;;;;;;2.90;94.80;;;;;;5084715;28;20340;-61
2022/01/16 09:16:25;;;;;;;;;;;2.90;94.90;;;;;;5085538;28;19908;-60
2022/01/16 09:18:50;;;;;;;;;;;2.90;94.90;;;;;;5085968;28;19924;-61
2022/01/16 09:21:16;;;;;;;;;;;2.90;94.90;;;;;;5068848;28;19915;-60
2022/01/16 09:23:43;;;;;;;;;;;2.90;94.80;;;;;;5084535;28;20363;-60
2022/01/16 09:26:08;;;;;;;;;;;2.90;94.70;;;;;;5084049;28;19966;-61
2022/01/16 09:28:34;;;;;;;;;;;2.90;94.70;;;;;;5082243;28;20210;-61
2022/01/16 09:30:59;;;;;;;;;;;3.00;94.70;;;;;;5085951;28;20270;-61
2022/01/16 09:33:25;;;;;;;;;;;2.90;94.60;;;;;;5102045;28;20336;-61
2022/01/16 09:35:50;;;;;;;;;;;2.90;94.60;;;;;;5068384;28;19918;-61
2022/01/16 09:38:17;;;;;;;;;;;3.00;94.60;;;;;;5099544;27;19916;-61
2022/01/16 09:40:42;;;;;;;;;;;3.00;94.60;;;;;;5082816;28;20006;-61
2022/01/16 09:43:08;;;;;;;;;;;3.00;94.60;;;;;;5086425;28;20454;-60
2022/01/16 09:45:33;;;;;;;;;;;3.00;94.60;;;;;;5069521;28;19965;-61
2022/01/16 09:47:59;;;;;;;;;;;3.00;94.60;;;;;;5067300;28;19920;-60
2022/01/16 09:50:25;;;;;;;;;;;3.00;94.60;;;;;;5083587;28;20414;-60
2022/01/16 09:52:50;;;;;;;;;;;3.00;94.40;;;;;;5102717;28;19912;-60
2022/01/16 09:55:16;;;;;;;;;;;3.00;94.50;;;;;;5067687;28;20281;-61
2022/01/16 09:57:41;;;;;;;;;;;3.00;94.50;;;;;;5069340;28;19912;-61
2022/01/16 10:00:08;;;;;;;;;;;3.00;94.50;;;;;;5080920;28;19920;-60
2022/01/16 10:02:33;;;;;;;;;;;2.70;94.40;;;;;;5072742;27;19938;-61
2022/01/16 10:04:59;;;;;;;;;;;3.00;94.50;;;;;;5070232;28;19919;-60
2022/01/16 10:07:24;;;;;;;;;;;3.00;94.50;;;;;;5089300;28;19919;-61
2022/01/16 10:10:09;;;;;;;;;;;3.00;94.50;;;;;;5073652;28;19965;-61
2022/01/16 10:12:35;;;;;;;;;;;3.00;94.40;;;;;;5083997;28;20830;-61
2022/01/16 10:15:16;;;;;;;;;;;3.00;94.60;;;;;;5066667;28;19931;-60
2022/01/16 10:17:43;;;;;;;;;;;3.10;94.60;;;;;;5084253;28;19940;-61
2022/01/16 10:20:09;;;;;;;;;;;3.10;94.60;;;;;;5069950;28;19985;-60
2022/01/16 10:22:39;;;;;;;;;;;3.10;94.60;;;;;;5086215;28;19920;-61
2022/01/16 10:25:05;;;;;;;;;;;3.10;94.60;;;;;;5084884;28;20056;-61
2022/01/16 10:27:33;;;;;;;;;;;3.10;94.60;;;;;;5066739;28;19926;-60
2022/01/16 10:30:01;;;;;;;;;;;3.10;94.50;;;;;;5081406;28;20318;-61
2022/01/16 10:32:27;;;;;;;;;;;3.10;94.50;;;;;;5100200;28;19946;-61
2022/01/16 10:35:14;;;;;;;;;;;3.10;94.50;;;;;;5100396;28;19916;-61
2022/01/16 10:37:43;;;;;;;;;;;3.20;94.60;;;;;;5082668;28;19974;-61
2022/01/16 10:40:22;;;;;;;;;;;3.20;94.70;;;;;;5082900;28;20015;-61
2022/01/16 10:42:48;;;;;;;;;;;3.20;94.60;;;;;;5081460;28;20033;-60
2022/01/16 10:45:14;;;;;;;;;;;3.20;94.50;;;;;;5063569;28;19923;-60
2022/01/16 10:47:39;;;;;;;;;;;3.20;94.60;;;;;;5066525;28;20009;-60
2022/01/16 10:50:05;;;;;;;;;;;3.20;94.70;;;;;;5097882;28;20383;-61
2022/01/16 10:52:30;;;;;;;;;;;3.20;94.60;;;;;;5084270;28;19935;-61
2022/01/16 10:55:03;;;;;;;;;;;3.20;94.60;;;;;;5098698;28;20520;-60
2022/01/16 10:57:28;;;;;;;;;;;3.20;94.60;;;;;;5078736;28;19974;-61
2022/01/16 11:00:09;;;;;;;;;;;3.20;94.70;;;;;;5062976;28;20391;-60
2022/01/16 11:02:35;;;;;;;;;;;3.20;94.60;;;;;;5097746;28;20371;-59
2022/01/16 11:05:20;;;;;;;;;;;3.20;94.50;;;;;;5065244;28;19981;-60
2022/01/16 11:07:45;;;;;;;;;;;3.30;94.60;;;;;;5065223;28;19915;-60
2022/01/16 11:10:26;;;;;;;;;;;3.30;94.60;;;;;;5062066;28;19930;-60
2022/01/16 11:12:52;;;;;;;;;;;3.30;94.50;;;;;;5077392;28;19912;-60
2022/01/16 11:15:18;;;;;;;;;;;3.30;94.40;;;;;;5077768;28;19992;-60
2022/01/16 11:17:43;;;;;;;;;;;3.30;94.60;;;;;;5068006;28;20344;-60
2022/01/16 11:20:09;;;;;;;;;;;3.30;95.00;;;;;;5065038;28;20363;-60
2022/01/16 11:22:55;;;;;;;;;;;3.30;94.70;;;;;;5068400;28;20006;-60
2022/01/16 11:25:30;;;;;;;;;;;3.40;94.70;;;;;;5102579;28;20374;-60
2022/01/16 11:27:56;;;;;;;;;;;3.40;94.80;;;;;;5072887;28;19916;-60
2022/01/16 11:30:22;;;;;;;;;;;3.40;94.80;;;;;;5087303;28;20404;-60
2022/01/16 11:32:47;;;;;;;;;;;3.40;94.90;;;;;;5069938;28;20439;-59
2022/01/16 11:35:13;;;;;;;;;;;3.40;94.90;;;;;;5066132;28;19912;-60
2022/01/16 11:37:38;;;;;;;;;;;3.40;94.80;;;;;;5082739;28;19923;-60
2022/01/16 11:40:27;;;;;;;;;;;3.40;94.60;;;;;;5061610;28;20133;-60
2022/01/16 11:43:11;;;;;;;;;;;3.40;94.70;;;;;;5097641;28;19919;-60
2022/01/16 11:45:47;;;;;;;;;;;3.50;94.80;;;;;;5068376;28;19920;-60
2022/01/16 11:48:12;;;;;;;;;;;3.50;94.80;;;;;;5062511;28;20657;-60
2022/01/16 11:50:38;;;;;;;;;;;3.50;94.80;;;;;;5075348;28;19916;-59
2022/01/16 11:53:03;;;;;;;;;;;3.50;94.90;;;;;;5067518;28;19916;-60
2022/01/16 11:55:32;;;;;;;;;;;3.50;95.00;;;;;;5079737;28;20007;-60
2022/01/16 11:57:58;;;;;;;;;;;3.50;95.00;;;;;;5086425;28;19949;-59
2022/01/16 12:00:24;;;;;;;;;;;3.50;95.10;;;;;;5067343;28;20357;-60
2022/01/16 12:02:50;;;;;;;;;;;3.50;95.10;;;;;;5064646;28;19923;-60
2022/01/16 12:05:22;;;;;;;;;;;3.60;95.10;;;;;;5083987;28;19908;-59
2022/01/16 12:07:48;;;;;;;;;;;3.60;95.10;;;;;;5081977;28;19919;-60
2022/01/16 12:10:33;;;;;;;;;;;3.60;95.00;;;;;;5080678;28;19919;-60
2022/01/16 12:12:58;;;;;;;;;;;3.60;95.00;;;;;;5083871;28;20034;-60
2022/01/16 12:15:24;;;;;;;;;;;3.70;95.00;;;;;;5081755;28;19931;-60
2022/01/16 12:17:51;;;;;;;;;;;3.60;95.00;;;;;;5084779;28;19920;-60
2022/01/16 12:20:21;;;;;;;;;;;3.70;95.40;;;;;;5065986;28;19919;-60
2022/01/16 12:23:05;;;;;;;;;;;3.70;95.00;;;;;;5098941;27;19933;-60
2022/01/16 12:25:37;;;;;;;;;;;3.70;95.10;;;;;;5082175;28;19920;-59
2022/01/16 12:28:09;;;;;;;;;;;3.80;95.10;;;;;;5058231;28;20369;-60
2022/01/16 12:30:55;;;;;;;;;;;3.80;95.20;;;;;;5096843;28;19916;-60
2022/01/16 12:33:25;;;;;;;;;;;3.80;95.20;;;;;;5084421;28;19920;-60
2022/01/16 12:35:50;;;;;;;;;;;3.80;95.30;;;;;;5071655;28;19973;-60
2022/01/16 12:38:22;;;;;;;;;;;3.80;95.20;;;;;;5099305;28;19919;-60
2022/01/16 12:40:51;;;;;;;;;;;3.80;95.30;;;;;;5081831;28;19920;-60
2022/01/16 12:43:25;;;;;;;;;;;3.80;95.20;;;;;;5065836;28;20313;-60
2022/01/16 12:45:51;;;;;;;;;;;3.90;95.30;;;;;;5080157;28;19912;-60
2022/01/16 12:48:16;;;;;;;;;;;3.90;95.20;;;;;;5065433;28;20256;-60
2022/01/16 12:50:41;;;;;;;;;;;3.90;95.20;;;;;;5062618;28;19971;-60
2022/01/16 12:53:07;;;;;;;;;;;3.90;95.20;;;;;;5080499;28;19947;-60
2022/01/16 12:55:33;;;;;;;;;;;4.00;95.20;;;;;;5078881;28;19919;-60
2022/01/16 12:58:13;;;;;;;;;;;4.00;95.20;;;;;;5080042;28;20347;-60
2022/01/16 13:00:56;;;;;;;;;;;4.00;95.00;;;;;;5081199;28;19919;-60
2022/01/16 13:03:28;;;;;;;;;;;4.10;95.20;;;;;;5079787;28;20061;-61
2022/01/16 13:06:13;;;;;;;;;;;4.10;94.80;;;;;;5073247;28;20755;-60
2022/01/16 13:08:53;;;;;;;;;;;4.10;94.80;;;;;;5094528;28;20051;-60
2022/01/16 13:11:19;;;;;;;;;;;4.10;94.80;;;;;;5097748;28;20250;-60
2022/01/16 13:13:44;;;;;;;;;;;4.10;94.70;;;;;;5081565;28;19915;-61
2022/01/16 13:16:23;;;;;;;;;;;4.10;94.70;;;;;;5099410;28;19977;-60
2022/01/16 13:19:02;;;;;;;;;;;4.20;94.70;;;;;;5080306;28;20333;-60
2022/01/16 13:21:41;;;;;;;;;;;4.20;94.90;;;;;;5061135;28;20007;-60
2022/01/16 13:24:07;;;;;;;;;;;4.20;94.90;;;;;;5071573;28;19911;-60
2022/01/16 13:26:34;;;;;;;;;;;4.20;94.90;;;;;;5072053;28;20524;-60
2022/01/16 13:29:06;;;;;;;;;;;4.20;95.00;;;;;;5076196;27;20332;-60
2022/01/16 13:31:34;;;;;;;;;;;4.20;94.90;;;;;;5087342;28;19955;-61
2022/01/16 13:34:12;;;;;;;;;;;4.20;94.90;;;;;;5081954;28;19926;-61
2022/01/16 13:36:38;;;;;;;;;;;4.20;94.80;;;;;;5063849;28;19916;-60
2022/01/16 13:39:04;;;;;;;;;;;4.20;94.80;;;;;;5076412;28;19920;-60
2022/01/16 13:41:29;;;;;;;;;;;4.20;94.80;;;;;;5089477;28;19981;-60
2022/01/16 13:43:55;;;;;;;;;;;4.20;94.70;;;;;;5070220;28;20506;-60
2022/01/16 13:46:20;;;;;;;;;;;4.20;94.60;;;;;;5075627;28;19923;-60
2022/01/16 13:48:46;;;;;;;;;;;4.20;94.70;;;;;;5075918;28;20025;-60
2022/01/16 13:51:12;;;;;;;;;;;4.20;94.70;;;;;;5066529;28;19942;-60
2022/01/16 13:53:38;;;;;;;;;;;4.20;94.80;;;;;;5066658;28;20011;-60
2022/01/16 13:56:16;;;;;;;;;;;4.20;94.70;;;;;;5073189;28;20460;-60
2022/01/16 13:58:42;;;;;;;;;;;4.20;94.70;;;;;;5093836;28;20011;-60
2022/01/16 14:01:18;;;;;;;;;;;4.20;94.60;;;;;;5065583;28;19912;-60
2022/01/16 14:03:56;;;;;;;;;;;4.20;94.60;;;;;;5096200;27;19978;-60
2022/01/16 14:06:24;;;;;;;;;;;4.20;94.50;;;;;;5079135;28;21800;-60
2022/01/16 14:08:53;;;;;;;;;;;4.20;94.60;;;;;;5082269;28;19985;-60
2022/01/16 14:11:20;;;;;;;;;;;4.20;94.70;;;;;;5102336;28;19915;-60
2022/01/16 14:13:50;;;;;;;;;;;4.30;94.70;;;;;;5078178;28;20328;-60
2022/01/16 14:16:15;;;;;;;;;;;4.30;94.60;;;;;;5094014;28;19987;-60
2022/01/16 14:18:53;;;;;;;;;;;4.30;94.50;;;;;;5079788;28;20347;-61
2022/01/16 14:24:04;;;;;;;;;;;4.30;94.60;;;;;;5080558;28;19923;-60
2022/01/16 14:26:29;;;;;;;;;;;4.40;94.60;;;;;;5067889;28;19920;-60
2022/01/16 14:28:54;;;;;;;;;;;4.40;94.60;;;;;;5077320;28;21702;-61
2022/01/16 14:31:20;;;;;;;;;;;4.40;94.60;;;;;;5067143;28;19948;-60
2022/01/16 14:33:47;;;;;;;;;;;4.40;94.70;;;;;;5062655;28;19920;-60
2022/01/16 14:36:13;;;;;;;;;;;4.40;94.70;;;;;;5068124;28;19918;-60
2022/01/16 14:38:39;;;;;;;;;;;4.40;94.70;;;;;;5063630;28;20294;-60
2022/01/16 14:41:04;;;;;;;;;;;4.40;94.60;;;;;;5066998;28;19916;-61
2022/01/16 14:43:40;;;;;;;;;;;4.40;94.50;;;;;;5061953;28;20185;-60
2022/01/16 14:46:06;;;;;;;;;;;4.50;94.60;;;;;;5072947;27;19973;-60
2022/01/16 14:48:31;;;;;;;;;;;4.50;94.70;;;;;;5080257;28;19924;-60
2022/01/16 14:50:57;;;;;;;;;;;4.50;94.80;;;;;;5096842;28;20019;-60
2022/01/16 14:53:22;;;;;;;;;;;4.50;94.80;;;;;;5065589;28;20400;-60
2022/01/16 14:55:48;;;;;;;;;;;4.50;94.90;;;;;;5066433;28;20054;-60
2022/01/16 14:58:13;;;;;;;;;;;4.50;94.90;;;;;;5087528;28;19933;-61
2022/01/16 15:00:39;;;;;;;;;;;4.60;94.80;;;;;;5081005;28;20283;-60
2022/01/16 15:03:04;;;;;;;;;;;4.60;94.70;;;;;;5085967;28;19958;-60
2022/01/16 15:05:30;;;;;;;;;;;4.60;94.70;;;;;;5073673;28;20031;-60
2022/01/16 15:07:55;;;;;;;;;;;4.60;94.70;;;;;;5076584;28;19992;-60
2022/01/16 15:10:20;;;;;;;;;;;4.60;94.70;;;;;;5068075;28;19970;-60
2022/01/16 15:12:46;;;;;;;;;;;4.70;94.70;;;;;;5066993;28;19912;-60
2022/01/16 15:15:12;;;;;;;;;;;4.70;94.70;;;;;;5085361;28;20038;-60
2022/01/16 15:17:43;;;;;;;;;;;4.70;94.70;;;;;;5077131;28;20552;-60